Date,TemperatureHighF,TemperatureAvgF,TemperatureLowF,DewpointHighF,DewpointAvgF,DewpointLowF,HumidityHigh,HumidityAvg,HumidityLow,PressureMaxIn,PressureMinIn,WindSpeedMaxMPH,WindSpeedAvgMPH,GustSpeedMaxMPH,PrecipitationSumIn
2013-1-1,82.0,72.1,63.0,65.0,57.4,51.0,87,61,41,0.00,40.00,22,11,32,0.00
2013-1-2,82.0,72.8,66.0,63.0,56.7,50.0,68,58,39,0.00,40.00,19,11,30,0.00
2013-1-3,82.0,72.5,64.0,65.0,55.2,44.0,69,56,42,0.00,40.00,19,10,32,0.00
2013-1-4,82.0,73.2,68.0,61.0,57.2,54.0,74,58,45,0.00,40.00,31,19,47,0.00
2013-1-5,80.0,72.9,64.0,64.0,55.8,47.0,82,56,40,0.00,40.00,19,11,30,0.00
2013-1-6,78.0,69.7,60.0,61.0,55.5,47.0,78,61,52,0.00,40.00,10,7,21,0.00
2013-1-7,79.0,69.4,62.0,62.0,55.9,48.0,78,63,46,0.00,40.00,21,11,35,0.00
2013-1-8,80.0,70.2,59.0,62.0,54.4,43.0,74,58,43,0.00,40.00,18,10,30,0.00
2013-1-9,79.0,70.6,62.0,62.0,57.2,52.0,77,63,46,0.00,40.00,14,8,22,0.00
2013-1-10,80.0,71.3,63.0,64.0,57.6,50.0,74,63,48,0.00,40.00,17,10,29,0.00
2013-1-11,80.0,71.0,62.0,63.0,56.9,44.0,73,61,43,0.00,40.00,26,12,34,0.00
2013-1-12,78.0,69.4,60.0,63.0,56.9,50.0,76,65,45,0.00,40.00,10,6,15,0.00
2013-1-13,80.0,70.1,62.0,65.0,57.3,51.0,77,64,48,0.00,40.00,10,7,16,0.00
2013-1-14,80.0,71.2,62.0,66.0,60.8,54.0,83,70,58,0.00,40.00,10,6,16,0.00
2013-1-15,75.0,70.5,68.0,68.0,66.9,63.0,97,88,76,0.00,40.00,8,4,14,0.27
2013-1-16,77.0,70.3,63.0,67.0,62.4,57.0,94,77,56,0.00,40.00,10,6,16,0.02
2013-1-17,77.0,67.9,59.0,60.0,56.0,50.0,85,67,51,0.00,40.00,11,7,19,0.00
2013-1-18,76.0,68.1,58.0,61.0,55.5,50.0,80,65,47,0.00,40.00,13,7,18,0.00
2013-1-19,81.0,70.0,61.0,55.0,48.9,39.0,67,50,23,0.00,40.00,23,14,32,0.00
2013-1-20,78.0,69.8,64.0,55.0,51.8,50.0,69,54,38,0.00,40.00,23,19,36,0.00
2013-1-21,78.0,69.6,64.0,61.0,54.7,51.0,72,60,39,0.00,40.00,22,15,35,0.00
2013-1-22,79.0,70.5,62.0,58.0,54.7,50.0,72,58,42,0.00,40.00,19,12,34,0.00
2013-1-23,80.0,70.4,63.0,62.0,57.4,53.0,72,64,46,0.00,40.00,17,10,35,0.00
2013-1-24,78.0,69.1,62.0,63.0,56.6,50.0,81,65,46,0.00,40.00,10,7,16,0.00
2013-1-25,77.0,69.1,61.0,63.0,57.6,52.0,83,67,55,0.00,40.00,10,6,16,0.00
2013-1-26,78.0,68.7,60.0,62.0,56.3,51.0,83,65,50,0.00,40.00,10,6,17,0.00
2013-1-27,79.0,69.1,61.0,62.0,55.1,49.0,76,62,45,0.00,40.00,11,7,19,0.00
2013-1-28,78.0,70.4,62.0,62.0,56.1,47.0,73,61,49,0.00,40.00,9,6,14,0.00
2013-1-29,75.0,69.0,62.0,65.0,60.6,54.0,92,75,64,0.00,40.00,8,6,12,0.01
2013-1-30,75.0,70.7,65.0,67.0,64.4,62.0,97,81,65,0.00,40.00,10,5,14,0.32
2013-1-31,78.0,71.9,64.0,65.0,60.6,56.0,82,68,54,0.00,40.00,18,9,27,0.00
2013-2-1,79.0,71.9,68.0,61.0,57.7,51.0,76,62,44,0.00,40.00,29,22,40,0.00
2013-2-2,80.0,70.0,62.0,59.0,52.3,42.0,66,54,42,0.00,40.00,22,14,31,0.00
2013-2-3,80.0,68.9,62.0,59.0,54.0,50.0,71,60,42,0.00,40.00,27,15,39,0.00
2013-2-4,77.0,69.6,63.0,59.0,54.6,51.0,72,59,46,0.00,40.00,29,19,46,0.00
2013-2-5,78.0,70.0,62.0,57.0,54.4,50.0,72,58,45,0.00,40.00,25,15,37,0.00
2013-2-6,78.0,69.9,62.0,61.0,54.8,48.0,73,59,43,0.00,40.00,15,9,26,0.00
2013-2-7,78.0,71.8,66.0,66.0,59.3,56.0,74,65,55,0.00,40.00,17,9,25,0.00
2013-2-8,81.0,71.5,65.0,63.0,57.0,49.0,72,61,43,0.00,40.00,17,11,26,0.00
2013-2-9,79.0,70.5,61.0,60.0,55.8,50.0,70,61,45,0.00,40.00,21,14,36,0.00
2013-2-10,79.0,72.5,66.0,60.0,56.8,53.0,69,58,40,0.00,40.00,26,18,42,0.00
2013-2-11,81.0,71.5,65.0,59.0,55.7,50.0,73,59,37,0.00,40.00,23,18,34,0.00
2013-2-12,78.0,68.8,65.0,57.0,55.3,53.0,74,63,44,0.00,40.00,23,18,34,0.00
2013-2-13,76.0,67.9,62.0,55.0,51.2,48.0,71,56,43,0.00,40.00,22,16,31,0.00
2013-2-14,76.0,68.1,60.0,54.0,52.4,48.0,71,58,44,0.00,40.00,22,16,31,0.00
2013-2-15,81.0,70.2,62.0,59.0,54.9,50.0,71,59,45,0.00,40.00,22,15,41,0.00
2013-2-16,77.0,70.5,67.0,57.0,55.3,52.0,70,59,43,0.00,40.00,35,24,49,0.00
2013-2-17,79.0,70.9,63.0,56.0,51.5,44.0,62,51,35,0.00,40.00,33,19,51,0.00
2013-2-18,76.0,70.0,63.0,59.0,54.2,49.0,69,58,49,0.00,40.00,33,20,59,0.00
2013-2-19,76.0,69.6,66.0,56.0,53.9,51.0,68,58,46,0.00,40.00,30,23,46,0.00
2013-2-20,79.0,70.7,62.0,58.0,55.7,52.0,72,60,45,0.00,40.00,30,21,45,0.00
2013-2-21,81.0,71.9,67.0,63.0,58.6,56.0,73,63,49,0.00,40.00,24,14,34,0.00
2013-2-22,80.0,72.5,67.0,60.0,55.8,52.0,70,56,44,0.00,40.00,24,16,36,0.00
2013-2-23,80.0,71.8,67.0,60.0,56.1,54.0,72,59,43,0.00,40.00,24,15,39,0.00
2013-2-24,78.0,70.7,65.0,59.0,55.9,52.0,68,60,46,0.00,40.00,28,22,42,0.00
2013-2-25,79.0,70.8,65.0,59.0,56.1,54.0,70,61,44,0.00,40.00,28,20,42,0.00
2013-2-26,80.0,70.9,65.0,57.0,53.0,47.0,68,54,38,0.00,40.00,25,18,40,0.00
2013-2-27,78.0,70.3,66.0,57.0,54.4,52.0,68,58,44,0.00,40.00,25,19,36,0.00
2013-2-28,78.0,69.2,60.0,56.0,52.0,47.0,65,55,40,0.00,40.00,22,17,36,0.00
2013-3-1,77.0,70.1,65.0,55.0,50.2,45.0,66,51,35,0.00,40.00,31,24,47,0.00
2013-3-2,77.0,69.8,65.0,58.0,52.9,48.0,67,56,41,0.00,40.00,28,21,45,0.00
2013-3-3,80.0,70.4,65.0,57.0,54.0,52.0,69,57,39,0.00,40.00,25,19,39,0.00
2013-3-4,79.0,69.9,64.0,56.0,52.6,48.0,70,55,37,0.00,40.00,26,18,36,0.00
2013-3-5,79.0,70.1,63.0,57.0,53.2,47.0,69,56,39,0.00,40.00,18,14,30,0.00
2013-3-6,79.0,69.6,60.0,59.0,54.4,47.0,71,59,44,0.00,40.00,16,10,25,0.00
2013-3-7,78.0,68.5,60.0,62.0,56.3,48.0,84,66,43,0.00,40.00,15,8,21,0.00
2013-3-8,77.0,68.8,58.0,62.0,56.1,48.0,84,66,45,0.00,40.00,11,6,17,0.00
2013-3-9,84.0,72.0,60.0,63.0,52.8,45.0,73,52,32,0.00,40.00,23,11,33,0.00
2013-3-10,84.0,74.3,67.0,67.0,61.7,53.0,92,67,40,0.00,40.00,24,9,36,0.00
2013-3-11,79.0,70.7,62.0,66.0,59.9,47.0,92,70,53,0.00,40.00,11,7,17,0.05
2013-3-12,77.0,70.8,66.0,66.0,62.2,59.0,89,75,58,0.00,40.00,14,6,19,0.06
2013-3-13,80.0,71.8,66.0,61.0,58.8,54.0,76,65,51,0.00,40.00,16,11,21,0.01
2013-3-14,76.0,70.1,62.0,64.0,58.8,52.0,80,68,53,0.00,40.00,13,7,19,0.01
2013-3-15,74.0,69.3,65.0,67.0,63.2,59.0,94,81,66,0.00,40.00,12,6,17,0.07
2013-3-16,69.0,66.1,63.0,65.0,61.6,57.0,95,86,76,0.00,40.00,7,4,16,0.82
2013-3-17,73.0,67.6,63.0,59.0,56.3,53.0,81,68,52,0.00,40.00,13,6,19,0.01
2013-3-18,78.0,68.9,60.0,58.0,51.9,47.0,82,58,33,0.00,40.00,11,7,17,0.00
2013-3-19,78.0,68.7,58.0,58.0,52.6,48.0,74,58,40,0.00,40.00,10,7,17,0.00
2013-3-20,79.0,71.0,63.0,64.0,56.9,51.0,77,62,41,0.00,40.00,13,7,20,0.00
2013-3-21,80.0,73.0,65.0,67.0,60.3,54.0,84,65,52,0.00,40.00,12,7,18,0.00
2013-3-22,77.0,71.5,64.0,66.0,60.3,52.0,85,68,57,0.00,40.00,9,5,13,0.00
2013-3-23,77.0,71.5,65.0,66.0,61.2,57.0,84,70,59,0.00,40.00,15,8,23,0.00
2013-3-24,77.0,72.1,68.0,66.0,61.7,56.0,84,70,59,0.00,40.00,15,7,20,0.00
2013-3-25,80.0,72.5,63.0,66.0,61.4,55.0,84,69,58,0.00,40.00,15,8,20,0.00
2013-3-26,79.0,72.7,67.0,66.0,62.1,57.0,78,69,59,0.00,40.00,16,9,21,0.00
2013-3-27,80.0,72.1,65.0,64.0,58.9,55.0,73,63,52,0.00,40.00,14,9,21,0.00
2013-3-28,80.0,75.1,67.0,59.0,56.5,53.0,66,53,41,0.00,40.00,22,16,34,0.00
2013-3-29,81.0,70.3,65.0,66.0,60.8,55.0,92,73,46,0.00,40.00,17,11,30,0.74
2013-3-30,75.0,69.8,63.0,65.0,59.9,-99.9,87,76,59,0.00,40.00,13,6,19,0.01
2013-3-31,77.0,70.1,63.0,61.0,58.0,55.0,86,67,51,0.00,40.00,17,8,25,0.00
2013-4-1,74.0,67.5,60.0,57.0,52.9,47.0,82,61,40,0.00,40.00,11,7,19,0.00
2013-4-2,75.0,66.9,58.0,55.0,52.6,47.0,73,61,45,0.00,40.00,19,9,25,0.00
2013-4-3,77.0,70.0,61.0,58.0,53.6,49.0,74,57,44,0.00,40.00,15,9,22,0.00
2013-4-4,80.0,71.2,61.0,57.0,52.5,48.0,71,53,35,0.00,40.00,11,7,16,0.00
2013-4-5,81.0,72.5,66.0,63.0,59.0,53.0,74,63,53,0.00,40.00,15,9,25,0.00
2013-4-6,82.0,72.4,62.0,67.0,60.6,53.0,86,67,54,0.00,40.00,11,6,16,0.00
2013-4-7,80.0,73.5,65.0,67.0,62.1,57.0,79,68,58,0.00,40.00,15,7,27,0.00
2013-4-8,80.0,72.7,64.0,66.0,58.9,54.0,85,63,41,0.00,40.00,14,8,21,0.03
2013-4-9,81.0,73.0,66.0,67.0,62.6,57.0,86,71,55,0.00,40.00,13,7,22,0.22
2013-4-10,82.0,74.0,63.0,67.0,62.2,57.0,86,68,51,0.00,40.00,10,7,23,0.02
2013-4-11,80.0,74.5,68.0,68.0,62.9,57.0,87,68,52,0.00,40.00,10,6,16,0.01
2013-4-12,78.0,72.9,65.0,66.0,62.0,56.0,78,69,55,0.00,40.00,11,7,20,0.00
2013-4-13,86.0,73.8,67.0,66.0,62.5,58.0,80,69,43,0.00,40.00,15,6,26,0.00
2013-4-14,80.0,72.5,64.0,68.0,60.6,53.0,86,67,50,0.00,40.00,10,6,19,0.00
2013-4-15,80.0,73.2,63.0,66.0,61.3,55.0,85,67,55,0.00,40.00,11,6,16,0.00
2013-4-16,78.0,73.4,67.0,69.0,63.4,55.0,86,72,59,0.00,40.00,13,7,18,0.00
2013-4-17,83.0,73.6,66.0,64.0,59.0,53.0,75,61,39,0.00,40.00,19,12,30,0.00
2013-4-18,81.0,72.3,67.0,69.0,59.9,54.0,86,66,45,0.00,40.00,20,14,31,0.25
2013-4-19,80.0,71.6,63.0,67.0,61.0,54.0,80,70,49,0.00,40.00,14,9,27,0.15
2013-4-20,79.0,72.5,64.0,66.0,62.2,56.0,83,71,57,0.00,40.00,13,8,19,0.00
2013-4-21,80.0,72.0,63.0,66.0,60.5,53.0,87,68,47,0.00,40.00,10,6,18,0.00
2013-4-22,79.0,72.3,63.0,67.0,60.7,53.0,81,68,53,0.00,40.00,11,7,18,0.00
2013-4-23,81.0,73.9,65.0,67.0,61.9,56.0,85,68,51,0.00,40.00,10,6,19,0.00
2013-4-24,84.0,75.4,64.0,68.0,63.6,56.0,90,68,52,0.00,40.00,15,7,22,0.00
2013-4-25,82.0,74.2,67.0,65.0,59.4,55.0,72,60,46,0.00,40.00,21,12,29,0.00
2013-4-26,83.0,73.8,68.0,61.0,58.2,55.0,70,59,41,0.00,40.00,20,16,31,0.00
2013-4-27,82.0,73.8,63.0,62.0,58.5,53.0,71,60,45,0.00,40.00,14,8,21,0.00
2013-4-28,82.0,74.0,64.0,64.0,59.7,54.0,74,62,53,0.00,40.00,10,7,18,0.00
2013-4-29,81.0,74.0,67.0,67.0,63.0,59.0,83,69,55,0.00,40.00,12,6,18,0.00
2013-4-30,83.0,74.9,65.0,65.0,60.6,55.0,76,62,49,0.00,40.00,14,9,24,0.00
2013-5-1,81.0,73.0,65.0,62.0,57.2,49.0,73,58,42,0.00,40.00,15,10,23,0.00
2013-5-2,81.0,72.2,66.0,68.0,61.7,57.0,88,70,54,0.00,40.00,13,9,20,0.13
2013-5-3,80.0,72.0,66.0,69.0,62.6,57.0,91,73,51,0.00,40.00,13,9,20,0.25
2013-5-4,77.0,71.8,65.0,68.0,64.8,60.0,90,79,61,0.00,40.00,11,7,18,0.22
2013-5-5,78.0,71.9,66.0,67.0,65.0,63.0,95,80,62,0.00,40.00,9,6,16,0.18
2013-5-6,80.0,73.1,67.0,69.0,65.6,61.0,92,79,56,0.00,40.00,10,6,16,0.01
2013-5-7,81.0,74.8,67.0,68.0,63.9,60.0,93,70,56,0.00,40.00,9,6,16,0.00
2013-5-8,82.0,74.3,65.0,67.0,63.0,58.0,83,69,53,0.00,40.00,9,6,18,0.00
2013-5-9,82.0,75.3,67.0,67.0,63.7,60.0,84,68,53,0.00,40.00,10,6,21,0.00
2013-5-10,83.0,75.8,69.0,68.0,62.2,-99.9,82,68,58,0.00,40.00,13,8,19,0.00
2013-5-11,83.0,74.8,71.0,71.0,66.0,-99.9,91,77,63,0.00,40.00,12,7,21,0.08
2013-5-12,84.0,76.1,71.0,70.0,64.6,62.0,80,68,53,0.00,40.00,19,10,32,0.01
2013-5-13,82.0,76.0,69.0,69.0,65.0,58.0,77,69,61,0.00,40.00,15,10,22,0.00
2013-5-14,85.0,76.0,67.0,63.0,59.0,55.0,69,57,43,0.00,40.00,21,12,32,0.00
2013-5-15,85.0,74.6,69.0,67.0,60.9,55.0,71,63,43,0.00,40.00,16,11,33,0.01
2013-5-16,85.0,71.5,68.0,67.0,43.9,-99.9,73,58,37,0.00,40.00,17,13,29,0.10
2013-5-17,83.0,74.0,65.0,69.0,57.6,-99.9,81,61,43,0.00,40.00,18,11,28,0.14
2013-5-18,81.0,72.9,65.0,68.0,62.7,56.0,90,72,54,0.00,40.00,15,8,22,0.03
2013-5-19,79.0,73.5,68.0,68.0,66.0,64.0,91,78,64,0.00,40.00,12,7,20,0.08
2013-5-20,78.0,71.2,64.0,68.0,64.6,59.0,91,80,63,0.00,40.00,9,6,17,0.02
2013-5-21,80.0,72.8,63.0,66.0,62.9,58.0,90,72,59,0.00,40.00,9,6,17,0.01
2013-5-22,83.0,75.6,67.0,67.0,62.4,57.0,86,65,48,0.00,40.00,9,6,17,0.00
2013-5-23,87.0,76.4,66.0,67.0,62.5,59.0,84,64,41,0.00,40.00,18,8,28,0.00
2013-5-24,84.0,75.8,70.0,66.0,61.2,57.0,74,62,45,0.00,40.00,20,14,31,0.00
2013-5-25,84.0,75.6,68.0,68.0,62.0,57.0,75,63,50,0.00,40.00,23,13,36,0.00
2013-5-26,83.0,75.7,70.0,65.0,60.7,57.0,70,60,48,0.00,40.00,21,15,32,0.00
2013-5-27,83.0,75.7,70.0,68.0,61.7,59.0,74,63,45,0.00,40.00,19,12,31,0.01
2013-5-28,83.0,74.8,67.0,70.0,63.3,57.0,90,69,52,0.00,40.00,12,6,20,0.40
2013-5-29,81.0,74.1,68.0,70.0,65.7,59.0,93,75,66,0.00,40.00,15,8,25,0.35
2013-5-30,81.0,74.4,65.0,68.0,62.7,55.0,80,67,57,0.00,40.00,14,8,24,0.01
2013-5-31,83.0,74.1,65.0,71.0,64.5,58.0,89,73,54,0.00,40.00,13,7,22,0.04
2013-6-1,86.0,77.3,70.0,70.0,64.1,60.0,85,65,49,0.00,40.00,17,11,30,0.03
2013-6-2,85.0,75.9,69.0,68.0,62.7,57.0,79,64,54,0.00,40.00,26,15,42,0.00
2013-6-3,85.0,76.8,71.0,62.0,59.8,57.0,69,57,45,0.00,40.00,23,18,37,0.00
2013-6-4,83.0,75.6,69.0,67.0,60.6,57.0,68,60,48,0.00,40.00,23,16,40,0.00
2013-6-5,81.0,75.1,69.0,62.0,58.7,54.0,67,57,47,0.00,40.00,23,16,42,0.00
2013-6-6,83.0,75.4,67.0,61.0,56.8,48.0,65,53,44,0.00,40.00,23,19,36,0.00
2013-6-7,83.0,74.3,68.0,62.0,57.4,50.0,66,56,46,0.00,40.00,21,17,33,0.00
2013-6-8,85.0,75.7,70.0,64.0,59.2,56.0,69,57,40,0.00,40.00,20,14,31,0.00
2013-6-9,85.0,76.1,68.0,63.0,59.6,55.0,70,58,42,0.00,40.00,19,14,29,0.00
2013-6-10,84.0,75.9,70.0,62.0,59.4,57.0,67,57,43,0.00,40.00,21,16,32,0.00
2013-6-11,82.0,75.5,70.0,66.0,61.0,57.0,73,61,49,0.00,40.00,20,12,28,0.00
2013-6-12,83.0,76.0,70.0,64.0,59.6,55.0,67,57,41,0.00,40.00,27,16,42,0.00
2013-6-13,86.0,76.2,68.0,61.0,58.9,55.0,71,56,41,0.00,40.00,22,13,36,0.00
2013-6-14,84.0,75.1,67.0,61.0,58.6,56.0,73,58,44,0.00,40.00,20,15,32,0.00
2013-6-15,85.0,75.9,68.0,62.0,57.9,52.0,69,55,35,0.00,40.00,18,14,28,0.00
2013-6-16,85.0,75.1,69.0,65.0,59.2,55.0,71,59,41,0.00,40.00,17,13,29,0.00
2013-6-17,86.0,76.9,70.0,64.0,60.3,55.0,70,58,38,0.00,40.00,20,14,34,0.00
2013-6-18,84.0,74.7,66.0,66.0,61.0,56.0,77,63,47,0.00,40.00,16,9,24,0.00
2013-6-19,83.0,76.3,70.0,67.0,60.6,56.0,70,59,44,0.00,40.00,19,12,29,0.00